Humidity-temperature Sensor

Selected Measurement Type: Relative Humidity

 
Relative Humidity [%]     6 entries per hour
Showing data from 3/15/2016 (14:40:00 Z) to 3/12/2016 (00:01:00 Z)
Previous Next [ Day | 3-Days | 7-Days ]
First Last
Prev [ Day | 3-Days | 7-Days ] Next
First Last

Start Time:     :
End Time:     :     
Time (in GMT) :00 :50 :40 :30 :20 :10
Previous Next [ Day | 3-Days | 7-Days ]
First Last
Prev [ Day | 3-Days | 7-Days ] Next
First Last


123 => good data
MM => data is determined as missing
-- => data not received/configured
Back to Top Back to Top
3/15/2016 15:00 to 14:10 -- -- 94.64 94.60 95.00 95.24
3/15/2016 14:00 to 13:10 95.28 95.61 95.95 96.36 96.09 96.23
3/15/2016 13:00 to 12:10 96.17 96.23 95.93 95.55 94.98 94.56
3/15/2016 12:00 to 11:10 94.80 94.90 94.07 95.59 96.64 96.44
3/15/2016 11:00 to 10:10 96.32 95.97 95.53 95.37 95.55 95.73
3/15/2016 10:00 to 9:10 95.97 95.99 95.99 96.11 96.01 96.05
3/15/2016 09:00 to 8:10 96.07 96.05 95.95 96.42 96.90 97.00
3/15/2016 08:00 to 7:10 96.94 96.82 96.86 96.68 96.58 96.62
3/15/2016 07:00 to 6:10 96.64 96.44 96.46 96.36 96.11 96.01
3/15/2016 06:00 to 5:10 95.81 95.93 96.27 96.50 96.72 96.78
3/15/2016 05:00 to 4:10 96.74 96.68 96.68 96.60 96.66 96.50
3/15/2016 04:00 to 3:10 96.52 96.66 96.64 96.58 96.76 96.88
3/15/2016 03:00 to 2:10 96.82 96.96 96.98 96.92 96.84 96.94
3/15/2016 02:00 to 1:10 97.04 97.33 97.41 97.49 97.51 97.51
3/15/2016 01:00 to 0:10 97.55 97.39 97.31 97.33 97.24 97.16
3/15/2016 00:00 to 23:10 97.10 97.08 97.06 96.92 96.72 96.54
3/14/2016 23:00 to 22:10 96.32 96.17 95.69 94.82 94.44 92.98
3/14/2016 22:00 to 21:10 89.26 91.38 91.77 92.42 92.88 93.35
3/14/2016 21:00 to 20:10 94.13 94.17 94.90 95.10 94.36 91.32
3/14/2016 20:00 to 19:10 89.83 91.16 89.63 87.49 87.26 87.30
3/14/2016 19:00 to 18:10 86.74 86.15 87.83 88.50 85.18 85.55
3/14/2016 18:00 to 17:10 86.01 86.19 85.24 85.50 85.77 85.14
3/14/2016 17:00 to 16:10 83.83 82.01 83.38 83.89 89.40 91.81
3/14/2016 16:00 to 15:10 90.46 83.97 85.91 86.43 90.13 91.53
3/14/2016 15:00 to 14:10 92.21 92.31 93.49 94.23 93.61 93.67
3/14/2016 14:00 to 13:10 95.26 95.71 96.32 96.80 96.66 96.34
3/14/2016 13:00 to 12:10 95.87 95.55 94.76 94.03 93.77 94.25
3/14/2016 12:00 to 11:10 94.11 93.79 94.58 94.09 90.48 90.25
3/14/2016 11:00 to 10:10 90.21 89.26 89.36 91.57 92.07 91.28
3/14/2016 10:00 to 9:10 90.96 91.61 92.58 94.29 95.41 95.31
3/14/2016 09:00 to 8:10 95.97 95.97 96.30 96.13 96.11 96.05
3/14/2016 08:00 to 7:10 95.99 96.05 96.01 95.87 95.53 95.14
3/14/2016 07:00 to 6:10 95.18 95.02 95.10 95.33 95.10 94.52
3/14/2016 06:00 to 5:10 93.28 89.02 81.28 83.30 85.83 83.26
3/14/2016 05:00 to 4:10 84.09 83.91 84.35 87.26 87.02 86.25
3/14/2016 04:00 to 3:10 85.55 84.29 84.45 84.05 84.27 84.25
3/14/2016 03:00 to 2:10 86.31 86.56 88.23 90.54 91.16 90.42
3/14/2016 02:00 to 1:10 90.60 90.78 90.88 90.80 90.62 90.35
3/14/2016 01:00 to 0:10 90.17 89.91 89.71 89.65 89.16 88.72
3/14/2016 00:00 to 23:10 88.48 88.29 88.21 88.15 88.56 88.94
3/13/2016 23:00 to 22:10 88.64 88.60 88.82 89.28 90.25 91.36
3/13/2016 22:00 to 21:10 92.86 93.06 94.13 95.02 95.53 95.35
3/13/2016 21:00 to 20:10 95.10 95.06 95.12 95.35 95.31 94.80
3/13/2016 20:00 to 19:10 94.34 94.31 94.60 94.05 93.41 92.48
3/13/2016 19:00 to 18:10 91.28 89.08 88.98 89.97 91.34 92.50
3/13/2016 18:00 to 17:10 93.30 93.59 93.47 93.45 93.59 93.65
3/13/2016 17:00 to 16:10 93.35 92.92 92.62 91.10 90.66 90.56
3/13/2016 16:00 to 15:10 91.81 91.51 90.94 90.86 90.92 91.30
3/13/2016 15:00 to 14:10 91.65 90.39 91.00 90.11 86.23 87.20
3/13/2016 14:00 to 13:10 88.50 90.94 88.13 88.07 87.77 87.73
3/13/2016 13:00 to 12:10 87.26 87.79 90.46 90.21 92.03 92.98
3/13/2016 12:00 to 11:10 93.41 91.79 89.53 89.49 89.00 86.27
3/13/2016 11:00 to 10:10 87.26 87.49 91.71 90.70 89.67 90.58
3/13/2016 10:00 to 9:10 90.15 88.76 88.37 88.15 87.28 88.70
3/13/2016 09:00 to 8:10 90.62 91.61 92.01 91.36 91.36 90.62
3/13/2016 08:00 to 7:10 92.86 90.03 89.16 89.79 91.18 87.91
3/13/2016 07:00 to 6:10 88.66 88.01 86.60 88.39 89.10 91.04
3/13/2016 06:00 to 5:10 90.11 88.37 88.92 88.33 86.19 87.28
3/13/2016 05:00 to 4:10 87.59 88.60 87.61 83.38 82.82 86.29
3/13/2016 04:00 to 3:10 85.97 83.75 86.39 86.88 86.05 85.26
3/13/2016 03:00 to 2:10 86.90 86.07 86.39 84.88 85.79 85.83
3/13/2016 02:00 to 1:10 86.62 86.27 84.70 84.58 84.17 84.49
3/13/2016 01:00 to 0:10 83.36 86.03 85.79 85.24 82.23 82.84
3/13/2016 00:00 to 23:10 82.84 82.86 82.43 81.93 82.41 82.80
3/12/2016 23:00 to 22:10 83.28 81.95 82.43 81.56 81.95 83.59
3/12/2016 22:00 to 21:10 83.73 83.77 83.46 85.42 84.74 83.26
3/12/2016 21:00 to 20:10 82.92 82.70 82.80 83.02 83.34 84.45
3/12/2016 20:00 to 19:10 84.47 84.43 82.07 85.14 85.08 85.93
3/12/2016 19:00 to 18:10 85.40 85.67 84.01 82.53 83.32 82.80
3/12/2016 18:00 to 17:10 83.42 83.73 83.75 83.73 83.04 82.88
3/12/2016 17:00 to 16:10 83.30 83.26 83.57 83.32 82.15 83.91
3/12/2016 16:00 to 15:10 84.21 81.14 81.97 82.90 82.11 82.51
3/12/2016 15:00 to 14:10 83.02 81.56 81.73 81.56 82.17 82.90
3/12/2016 14:00 to 13:10 82.64 82.66 81.44 82.19 83.02 82.96
3/12/2016 13:00 to 12:10 81.83 83.59 82.64 83.83 83.48 83.26
3/12/2016 12:00 to 11:10 83.40 81.77 82.29 83.48 85.12 85.00
3/12/2016 11:00 to 10:10 82.74 82.15 83.06 83.73 84.29 84.21
3/12/2016 10:00 to 9:10 83.85 84.17 84.72 84.17 83.67 84.17
3/12/2016 09:00 to 8:10 86.35 86.07 85.73 85.63 85.30 86.09
3/12/2016 08:00 to 7:10 86.82 86.68 85.48 86.15 87.42 87.75
3/12/2016 07:00 to 6:10 88.19 89.28 89.16 88.39 87.73 86.92
3/12/2016 06:00 to 5:10 88.46 88.88 87.95 86.96 87.93 88.76
3/12/2016 05:00 to 4:10 88.48 88.74 87.85 88.25 87.55 87.93
3/12/2016 04:00 to 3:10 88.56 90.39 88.68 88.76 86.54 86.84
3/12/2016 03:00 to 2:10 86.78 86.15 86.05 85.97 85.46 86.19
3/12/2016 02:00 to 1:10 85.40 85.57 84.39 85.06 84.72 84.45
3/12/2016 01:00 to 0:10 84.88 84.84 85.18 84.21 84.47 85.95